Brightwood, North Carolina
Current Conditions -  °F | °C
As of 11:54 AM on Monday 22 Dec 2014 (Local Time) from KBUY Reporting Station
Haze Haze  
Wind Chill: 28°   Ceiling: 600
Heat Index: 37°   Visibility: 3mi
Dew Point: 34°   Wind: 14mph
Humidity: 89%   Direction: 20°NNE
Pressure: 30.11"   Gusts: 21mph
Location:  36.2136°N, 79.6775°W
Report Text: KBUY 221654Z AUTO 02012G18KT 3SM BR OVC006 03/01 A3011 RMK AO2 CIG 004V008 SLP198 T00280011
Loading
Personal Weather Stations






























Interactive Weather Map New forecast layout! Learn more

10-Day Weather Forecast

Advertisements
Track Severe Weather on mobile